createdAt,value
2018-07-24T00:01:22.831Z,3.27
2018-07-24T00:03:50.564Z,3.47
2018-07-24T00:06:18.233Z,3.40
2018-07-24T00:08:45.889Z,3.60
2018-07-24T00:11:13.525Z,2.60
2018-07-24T00:13:41.195Z,2.33
2018-07-24T00:16:10.603Z,2.70
2018-07-24T00:18:38.269Z,2.50
2018-07-24T00:21:06.033Z,2.70
2018-07-24T00:23:34.145Z,2.20
2018-07-24T00:26:02.021Z,2.30
2018-07-24T00:28:29.699Z,2.33
2018-07-24T00:30:57.407Z,2.00
2018-07-24T00:33:25.048Z,2.40
2018-07-24T00:35:52.656Z,2.00
2018-07-24T00:38:20.679Z,2.50
2018-07-24T00:40:48.356Z,2.40
2018-07-24T00:43:16.015Z,2.07
2018-07-24T00:45:43.819Z,2.50
2018-07-24T00:48:11.475Z,2.63
2018-07-24T00:50:39.200Z,2.53
2018-07-24T00:53:07.063Z,2.67
2018-07-24T00:55:34.747Z,2.30
2018-07-24T00:58:03.488Z,2.67
2018-07-24T01:00:31.467Z,2.70
2018-07-24T01:02:59.699Z,3.27
2018-07-24T01:05:27.394Z,4.13
2018-07-24T01:07:55.335Z,4.70
2018-07-24T01:10:22.925Z,4.33
2018-07-24T01:12:50.519Z,4.10
2018-07-24T01:15:18.306Z,3.63
2018-07-24T01:17:45.905Z,3.43
2018-07-24T01:20:13.623Z,3.57
2018-07-24T01:22:41.554Z,3.10
2018-07-24T01:25:09.167Z,2.77
2018-07-24T01:27:37.049Z,3.07
2018-07-24T01:30:04.895Z,3.17
2018-07-24T01:32:32.595Z,2.63
2018-07-24T01:35:01.294Z,2.30
2018-07-24T01:37:29.332Z,2.10
2018-07-24T01:39:57.000Z,2.77
2018-07-24T01:42:24.643Z,2.50
2018-07-24T01:44:52.582Z,2.43
2018-07-24T01:47:20.302Z,2.40
2018-07-24T01:49:48.055Z,2.37
2018-07-24T01:52:15.724Z,2.40
2018-07-24T01:54:43.402Z,2.73
2018-07-24T01:57:11.068Z,2.43
2018-07-24T01:59:38.679Z,2.30
2018-07-24T02:02:06.785Z,2.43
2018-07-24T02:04:34.456Z,2.43
2018-07-24T02:07:02.585Z,2.50
2018-07-24T02:09:30.192Z,2.40
2018-07-24T02:11:57.826Z,1.80
2018-07-24T02:14:26.083Z,2.43
2018-07-24T02:17:06.146Z,2.83
2018-07-24T02:19:45.024Z,2.67
2018-07-24T02:22:20.006Z,2.03
2018-07-24T02:25:26.049Z,2.17
2018-07-24T02:28:39.599Z,2.60
2018-07-24T02:31:14.882Z,2.23
2018-07-24T02:33:42.495Z,2.07
2018-07-24T02:36:10.240Z,2.13
2018-07-24T02:38:37.848Z,2.20
2018-07-24T02:41:05.585Z,2.27
2018-07-24T02:43:33.361Z,2.50
2018-07-24T02:46:01.436Z,2.50
2018-07-24T02:48:29.075Z,2.47
2018-07-24T02:50:57.173Z,2.00
2018-07-24T02:53:24.837Z,2.37
2018-07-24T02:55:52.709Z,2.47
2018-07-24T02:58:20.388Z,2.30
2018-07-24T03:00:48.044Z,2.30
2018-07-24T03:03:16.519Z,2.23
2018-07-24T03:05:44.197Z,2.27
2018-07-24T03:08:12.097Z,2.20
2018-07-24T03:10:39.947Z,2.63
2018-07-24T03:13:07.671Z,2.57
2018-07-24T03:15:35.512Z,2.37
2018-07-24T03:18:03.572Z,2.50
2018-07-24T03:20:31.197Z,3.00
2018-07-24T03:22:58.891Z,2.63
2018-07-24T03:25:26.660Z,3.13
2018-07-24T03:27:54.283Z,2.90
2018-07-24T03:30:22.059Z,2.73
2018-07-24T03:32:49.892Z,2.90
2018-07-24T03:35:17.516Z,2.37
2018-07-24T03:37:46.390Z,2.40
2018-07-24T03:40:14.129Z,2.77
2018-07-24T03:42:41.767Z,2.40
2018-07-24T03:45:09.383Z,2.53
2018-07-24T03:47:37.396Z,2.73
2018-07-24T03:50:05.136Z,2.63
2018-07-24T03:52:32.945Z,2.77
2018-07-24T03:55:00.608Z,2.47
2018-07-24T03:57:28.263Z,2.80
2018-07-24T03:59:56.251Z,3.00
2018-07-24T04:02:23.939Z,2.47
2018-07-24T04:04:51.732Z,2.60
2018-07-24T04:07:19.435Z,3.47
2018-07-24T04:09:47.191Z,3.30
2018-07-24T04:12:15.134Z,3.17
2018-07-24T04:14:43.365Z,2.93
2018-07-24T04:17:11.032Z,2.97
2018-07-24T04:19:39.396Z,3.27
2018-07-24T04:22:07.027Z,3.10
2018-07-24T04:24:34.719Z,3.00
2018-07-24T04:27:02.555Z,3.30
2018-07-24T04:39:48.108Z,3.17
2018-07-24T04:42:15.709Z,2.00
2018-07-24T04:44:43.641Z,2.53
2018-07-24T04:47:11.316Z,2.90
2018-07-24T04:49:38.994Z,2.97
2018-07-24T04:52:07.210Z,3.20
2018-07-24T04:54:34.988Z,2.80
2018-07-24T04:57:02.766Z,2.73
2018-07-24T04:59:31.632Z,3.10
2018-07-24T05:01:59.315Z,3.10
2018-07-24T05:04:26.924Z,3.17
2018-07-24T05:06:54.716Z,3.47
2018-07-24T05:09:22.339Z,3.00
2018-07-24T05:11:50.121Z,3.23
2018-07-24T05:14:17.735Z,3.33
2018-07-24T05:16:45.381Z,3.37
2018-07-24T05:19:13.441Z,3.00
2018-07-24T05:21:41.074Z,3.53
2018-07-24T05:24:08.722Z,3.47
2018-07-24T05:26:36.631Z,3.63
2018-07-24T05:29:04.344Z,3.00
2018-07-24T05:31:31.787Z,3.20
2018-07-24T05:33:59.459Z,2.93
2018-07-24T05:36:27.064Z,3.33
2018-07-24T05:38:55.073Z,3.23
2018-07-24T05:41:23.599Z,2.93
2018-07-24T05:43:51.204Z,3.00
2018-07-24T05:46:20.435Z,2.80
2018-07-24T05:48:48.322Z,3.13
2018-07-24T05:51:16.412Z,2.70
2018-07-24T05:53:44.040Z,2.83
2018-07-24T05:56:11.696Z,3.33
2018-07-24T05:58:39.589Z,3.13
2018-07-24T06:01:07.239Z,3.10
2018-07-24T06:03:35.127Z,3.20
2018-07-24T06:06:03.096Z,3.70
2018-07-24T06:08:30.753Z,3.43
2018-07-24T06:10:58.372Z,3.90
2018-07-24T06:13:33.988Z,3.43
2018-07-24T06:16:26.371Z,3.77
2018-07-24T06:18:58.272Z,3.67
2018-07-24T06:21:25.955Z,3.20
2018-07-24T06:24:16.571Z,2.80
2018-07-24T06:26:51.886Z,3.10
2018-07-24T06:29:19.897Z,2.63
2018-07-24T06:31:48.142Z,2.93
2018-07-24T06:34:30.902Z,2.70
2018-07-24T06:36:58.638Z,2.53
2018-07-24T06:39:34.261Z,2.80
2018-07-24T06:42:22.575Z,2.77
2018-07-24T06:44:50.463Z,2.50
2018-07-24T06:47:18.076Z,2.50
2018-07-24T06:49:45.756Z,2.53
2018-07-24T06:52:13.584Z,2.47
2018-07-24T06:54:41.227Z,2.53
2018-07-24T06:57:09.110Z,2.50
2018-07-24T06:59:36.727Z,2.83
2018-07-24T07:02:04.428Z,2.33
2018-07-24T07:04:32.323Z,2.70
2018-07-24T07:06:59.918Z,2.50
2018-07-24T07:09:27.810Z,2.53
2018-07-24T07:11:55.483Z,2.20
2018-07-24T07:14:23.107Z,2.47
2018-07-24T07:16:51.130Z,2.70
2018-07-24T07:19:19.222Z,2.83
2018-07-24T07:21:46.947Z,2.50
2018-07-24T07:24:14.795Z,2.93
2018-07-24T07:26:42.402Z,2.50
2018-07-24T07:29:10.065Z,2.77
2018-07-24T07:31:37.903Z,2.90
2018-07-24T07:34:05.333Z,2.87
2018-07-24T07:36:33.055Z,2.67
2018-07-24T07:39:01.002Z,2.57
2018-07-24T07:41:28.620Z,2.40
2018-07-24T07:43:56.276Z,2.57
2018-07-24T07:46:23.899Z,2.23
2018-07-24T07:48:51.521Z,2.20
2018-07-24T07:51:19.316Z,1.80
2018-07-24T07:53:46.997Z,2.10
2018-07-24T07:56:14.592Z,2.47
2018-07-24T07:58:42.453Z,2.27
2018-07-24T08:01:09.995Z,2.50
2018-07-24T08:03:37.617Z,2.37
2018-07-24T08:06:05.527Z,2.13
2018-07-24T08:08:33.127Z,2.20
2018-07-24T08:11:00.782Z,2.20
2018-07-24T08:13:28.439Z,2.17
2018-07-24T08:15:56.108Z,2.30
2018-07-24T08:18:23.750Z,2.90
2018-07-24T08:20:51.607Z,2.93
2018-07-24T08:23:19.244Z,2.97
2018-07-24T08:25:46.920Z,2.50
2018-07-24T08:28:15.083Z,2.57
2018-07-24T08:30:42.716Z,2.60
2018-07-24T08:33:10.327Z,2.57
2018-07-24T08:35:38.026Z,2.30
2018-07-24T08:38:05.661Z,2.63
2018-07-24T08:40:33.487Z,2.90
2018-07-24T08:43:01.406Z,2.20
2018-07-24T08:45:29.028Z,2.37
2018-07-24T08:47:56.699Z,2.33
2018-07-24T08:50:24.571Z,2.80
2018-07-24T08:52:52.328Z,2.33
2018-07-24T08:55:58.600Z,2.20
2018-07-24T08:58:36.484Z,2.17
2018-07-24T09:01:42.595Z,2.47
2018-07-24T09:04:56.139Z,2.17
2018-07-24T09:07:31.187Z,2.00
2018-07-24T09:09:58.836Z,2.30
2018-07-24T09:12:26.593Z,2.23
2018-07-24T09:14:54.251Z,2.50
2018-07-24T09:17:21.867Z,2.20
2018-07-24T09:19:49.730Z,2.07
2018-07-24T09:22:17.400Z,2.03
2018-07-24T09:24:45.052Z,2.10
2018-07-24T09:27:12.929Z,2.07
2018-07-24T09:29:40.543Z,2.13
2018-07-24T09:32:08.338Z,2.00
2018-07-24T09:34:36.044Z,2.13
2018-07-24T09:37:04.744Z,2.47
2018-07-24T09:39:32.331Z,2.40
2018-07-24T09:42:00.165Z,2.17
2018-07-24T09:44:27.979Z,2.50
2018-07-24T09:46:55.604Z,2.50
2018-07-24T09:49:23.223Z,2.47
2018-07-24T09:51:50.835Z,1.87
2018-07-24T09:54:19.015Z,2.03
2018-07-24T09:56:46.633Z,1.87
2018-07-24T09:59:14.230Z,2.07
2018-07-24T10:01:42.216Z,2.40
2018-07-24T10:04:09.780Z,2.10
2018-07-24T10:06:37.400Z,2.13
2018-07-24T10:09:08.364Z,2.00
2018-07-24T10:11:35.968Z,2.10
2018-07-24T10:14:03.616Z,2.17
2018-07-24T10:16:31.555Z,1.97
2018-07-24T10:18:59.171Z,1.87
2018-07-24T10:21:26.798Z,1.97
2018-07-24T10:23:54.527Z,2.10
2018-07-24T10:26:22.124Z,1.97
2018-07-24T10:28:49.741Z,2.20
2018-07-24T10:31:17.605Z,2.33
2018-07-24T10:33:45.374Z,2.20
2018-07-24T10:36:13.055Z,1.90
2018-07-24T10:38:40.957Z,2.10
2018-07-24T10:41:08.675Z,2.20
2018-07-24T10:43:36.328Z,2.00
2018-07-24T10:46:04.184Z,1.63
2018-07-24T10:48:32.349Z,2.03
2018-07-24T10:50:59.924Z,1.93
2018-07-24T10:53:28.072Z,1.77
2018-07-24T10:56:02.036Z,1.57
2018-07-24T10:58:30.223Z,1.80
2018-07-24T11:00:57.897Z,1.90
2018-07-24T11:03:25.964Z,2.03
2018-07-24T11:05:53.587Z,1.70
2018-07-24T11:08:21.311Z,1.73
2018-07-24T11:10:48.918Z,1.70
2018-07-24T11:13:16.759Z,1.83
2018-07-24T11:15:44.405Z,1.73
2018-07-24T11:18:12.397Z,1.70
2018-07-24T11:20:39.977Z,2.10
2018-07-24T11:23:07.763Z,2.10
2018-07-24T11:25:35.805Z,1.87
2018-07-24T11:28:03.399Z,1.70
2018-07-24T11:30:30.975Z,1.87
2018-07-24T11:32:58.831Z,1.77
2018-07-24T11:35:26.426Z,1.80
2018-07-24T11:37:54.093Z,1.80
2018-07-24T11:40:22.216Z,1.77
2018-07-24T11:42:49.785Z,1.70
2018-07-24T11:45:17.366Z,1.70
2018-07-24T11:47:45.131Z,1.57
2018-07-24T11:50:12.708Z,1.70
2018-07-24T11:52:40.379Z,1.63
2018-07-24T11:55:08.219Z,2.07
2018-07-24T11:57:35.899Z,1.70
2018-07-24T12:00:04.335Z,2.00
2018-07-24T12:02:32.653Z,1.90
2018-07-24T12:05:00.255Z,1.60
2018-07-24T12:07:27.871Z,1.60
2018-07-24T12:09:56.068Z,1.90
2018-07-24T12:12:23.667Z,1.83
2018-07-24T12:14:51.369Z,1.63
2018-07-24T12:17:19.290Z,1.63
2018-07-24T12:19:46.880Z,1.60
2018-07-24T12:22:14.492Z,1.73
2018-07-24T12:24:42.576Z,1.53
2018-07-24T12:27:10.268Z,1.57
2018-07-24T12:29:37.820Z,1.77
2018-07-24T12:32:05.676Z,1.80
2018-07-24T12:34:33.317Z,1.67
2018-07-24T12:37:01.048Z,1.97
2018-07-24T12:39:30.352Z,1.70
2018-07-24T12:41:58.468Z,1.30
2018-07-24T12:44:26.376Z,1.33
2018-07-24T12:46:53.976Z,1.47
2018-07-24T12:49:21.560Z,1.67
2018-07-24T12:51:49.467Z,1.30
2018-07-24T12:54:17.088Z,1.73
2018-07-24T12:56:44.710Z,1.47
2018-07-24T12:59:12.802Z,1.60
2018-07-24T13:01:40.669Z,1.50
2018-07-24T13:04:08.554Z,1.53
2018-07-24T13:06:36.151Z,1.63
2018-07-24T13:09:07.399Z,1.50
2018-07-24T13:11:35.328Z,1.50
2018-07-24T13:14:02.935Z,1.50
2018-07-24T13:16:30.588Z,1.60
2018-07-24T13:18:58.172Z,1.53
2018-07-24T13:21:25.771Z,1.60
2018-07-24T13:23:53.467Z,1.50
2018-07-24T13:26:21.061Z,1.70
2018-07-24T13:28:48.674Z,1.37
2018-07-24T13:31:16.582Z,1.47
2018-07-24T13:33:44.204Z,1.60
2018-07-24T13:36:12.119Z,1.90
2018-07-24T13:38:39.754Z,1.53
2018-07-24T13:41:07.357Z,1.70
2018-07-24T13:46:02.359Z,1.50
2018-07-24T13:48:29.939Z,1.47
2018-07-24T13:50:57.829Z,1.50
2018-07-24T13:53:25.451Z,1.70
2018-07-24T13:55:53.340Z,1.50
2018-07-24T13:58:20.956Z,1.33
2018-07-24T14:00:48.551Z,1.50
2018-07-24T14:03:16.466Z,1.30
2018-07-24T14:05:44.053Z,1.50
2018-07-24T14:08:11.733Z,1.87
2018-07-24T14:10:39.644Z,1.40
2018-07-24T14:13:07.271Z,1.50
2018-07-24T14:15:34.837Z,1.30
2018-07-24T14:18:03.161Z,1.60
2018-07-24T14:20:30.801Z,1.33
2018-07-24T14:22:58.499Z,1.60
2018-07-24T14:25:26.392Z,1.40
2018-07-24T14:27:54.223Z,1.70
2018-07-24T14:30:21.877Z,1.50
2018-07-24T14:32:49.866Z,1.57
2018-07-24T14:35:17.576Z,1.60
2018-07-24T14:37:45.187Z,1.60
2018-07-24T14:40:13.390Z,1.60
2018-07-24T14:42:40.966Z,1.70
2018-07-24T14:45:08.907Z,1.50
2018-07-24T14:47:36.618Z,1.50
2018-07-24T14:50:04.413Z,1.40
2018-07-24T14:55:08.711Z,1.20
2018-07-24T14:57:36.327Z,1.40
2018-07-24T15:00:04.438Z,1.20
2018-07-24T15:02:32.043Z,1.23
2018-07-24T15:04:59.837Z,1.40
2018-07-24T15:07:27.764Z,1.50
2018-07-24T15:09:55.381Z,1.30
2018-07-24T15:12:23.012Z,1.43
2018-07-24T15:14:50.859Z,1.30
2018-07-24T15:17:18.454Z,1.30
2018-07-24T15:19:46.066Z,1.37
2018-07-24T15:22:13.966Z,1.43
2018-07-24T15:24:41.985Z,1.40
2018-07-24T15:27:09.667Z,1.20
2018-07-24T15:29:37.476Z,1.50
2018-07-24T15:32:05.103Z,1.47
2018-07-24T15:34:33.105Z,1.20
2018-07-24T15:37:00.656Z,1.40
2018-07-24T15:39:28.208Z,1.30
2018-07-24T15:41:56.127Z,1.20
2018-07-24T15:44:23.996Z,1.27
2018-07-24T15:46:52.036Z,1.20
2018-07-24T15:49:19.543Z,1.20
2018-07-24T15:51:47.499Z,1.47
2018-07-24T15:54:15.145Z,1.13
2018-07-24T15:56:42.799Z,1.30
2018-07-24T15:59:10.371Z,1.40
2018-07-24T16:01:38.099Z,1.10
2018-07-24T16:04:05.772Z,1.17
2018-07-24T16:06:33.337Z,1.03
2018-07-24T16:09:00.940Z,1.30
2018-07-24T16:11:28.563Z,1.10
2018-07-24T16:13:56.163Z,1.20
2018-07-24T16:16:23.772Z,1.30
2018-07-24T16:18:51.511Z,1.33
2018-07-24T16:21:19.198Z,1.37
2018-07-24T16:23:46.816Z,1.10
2018-07-24T16:26:14.381Z,1.40
2018-07-24T16:28:42.072Z,0.90
2018-07-24T16:31:09.632Z,1.23
2018-07-24T16:33:37.415Z,1.17
2018-07-24T16:36:05.338Z,1.27
2018-07-24T16:38:33.404Z,1.13
2018-07-24T16:41:07.793Z,1.20
2018-07-24T16:43:35.480Z,1.07
2018-07-24T16:46:03.101Z,1.20
2018-07-24T16:48:32.098Z,1.13
2018-07-24T16:51:00.457Z,1.20
2018-07-24T16:53:28.134Z,1.20
2018-07-24T16:55:55.977Z,1.10
2018-07-24T16:58:23.629Z,0.83
2018-07-24T17:00:51.256Z,1.00
2018-07-24T17:03:18.909Z,1.20
2018-07-24T17:05:46.543Z,1.20
2018-07-24T17:08:14.198Z,1.30
2018-07-24T17:10:41.892Z,1.20
2018-07-24T17:13:09.524Z,0.93
2018-07-24T17:15:37.154Z,1.13
2018-07-24T17:18:05.588Z,1.10
2018-07-24T17:20:33.396Z,1.07
2018-07-24T17:23:01.093Z,1.13
2018-07-24T17:25:29.032Z,1.10
2018-07-24T17:27:56.656Z,1.20
2018-07-24T17:30:24.303Z,1.10
2018-07-24T17:32:52.267Z,1.10
2018-07-24T17:35:20.018Z,1.00
2018-07-24T17:37:48.201Z,1.20
2018-07-24T17:40:15.874Z,0.80
2018-07-24T17:42:43.587Z,0.90
2018-07-24T17:45:12.131Z,1.00
2018-07-24T17:47:39.974Z,1.07
2018-07-24T17:50:08.326Z,1.20
2018-07-24T17:52:36.052Z,1.07
2018-07-24T17:55:03.916Z,1.17
2018-07-24T17:57:31.608Z,1.13
2018-07-24T17:59:59.332Z,1.00
2018-07-24T18:02:27.005Z,0.90
2018-07-24T18:04:54.583Z,1.07
2018-07-24T18:07:22.275Z,1.33
2018-07-24T18:09:49.860Z,1.03
2018-07-24T18:12:17.513Z,1.10
2018-07-24T18:14:45.510Z,1.10
2018-07-24T18:17:13.287Z,1.20
2018-07-24T18:19:40.872Z,1.10
2018-07-24T18:22:08.568Z,1.13
2018-07-24T18:24:36.173Z,1.20
2018-07-24T18:27:03.886Z,0.83
2018-07-24T18:29:31.871Z,1.10
2018-07-24T18:31:59.515Z,1.00
2018-07-24T18:34:27.257Z,1.00
2018-07-24T18:36:54.897Z,1.10
2018-07-24T18:39:22.492Z,1.30
2018-07-24T18:41:50.739Z,1.10
2018-07-24T18:44:18.386Z,1.10
2018-07-24T18:46:45.945Z,1.40
2018-07-24T18:49:13.651Z,1.43
2018-07-24T18:51:41.319Z,1.37
2018-07-24T18:54:09.080Z,1.20
2018-07-24T18:56:36.878Z,1.20
2018-07-24T18:59:04.779Z,1.23
2018-07-24T19:01:32.404Z,1.20
2018-07-24T19:04:00.147Z,1.47
2018-07-24T19:06:27.753Z,1.20
2018-07-24T19:08:55.827Z,1.17
2018-07-24T19:11:23.383Z,1.10
2018-07-24T19:13:51.065Z,1.10
2018-07-24T19:16:18.752Z,1.03
2018-07-24T19:18:46.474Z,1.20
2018-07-24T19:21:14.266Z,1.20
2018-07-24T19:23:42.156Z,1.17
2018-07-24T19:26:09.812Z,1.20
2018-07-24T19:28:37.404Z,1.10
2018-07-24T19:31:05.390Z,1.30
2018-07-24T19:33:33.035Z,1.27
2018-07-24T19:36:08.183Z,1.20
2018-07-24T19:38:44.020Z,1.33
2018-07-24T19:41:11.656Z,1.43
2018-07-24T19:43:39.689Z,1.47
2018-07-24T19:46:07.303Z,1.10
2018-07-24T19:48:35.428Z,1.20
2018-07-24T19:51:03.240Z,1.57
2018-07-24T19:53:31.009Z,1.30
2018-07-24T19:55:58.740Z,1.10
2018-07-24T19:58:26.353Z,1.37
2018-07-24T20:00:54.755Z,1.37
2018-07-24T20:03:22.522Z,1.20
2018-07-24T20:05:50.316Z,1.57
2018-07-24T20:08:17.934Z,1.20
2018-07-24T20:10:45.732Z,1.37
2018-07-24T20:13:13.357Z,1.40
2018-07-24T20:15:41.404Z,1.30
2018-07-24T20:18:09.108Z,1.30
2018-07-24T20:20:36.918Z,1.20
2018-07-24T20:23:11.420Z,1.27
2018-07-24T20:25:38.991Z,1.50
2018-07-24T20:28:06.683Z,1.70
2018-07-24T20:30:34.618Z,1.70
2018-07-24T20:33:02.331Z,1.27
2018-07-24T20:35:29.995Z,1.30
2018-07-24T20:37:58.059Z,1.67
2018-07-24T20:40:25.732Z,1.60
2018-07-24T20:42:53.382Z,1.47
2018-07-24T20:45:21.447Z,1.27
2018-07-24T20:47:49.074Z,1.50
2018-07-24T20:50:16.716Z,1.93
2018-07-24T20:52:44.475Z,1.50
2018-07-24T20:55:12.912Z,1.60
2018-07-24T20:57:40.647Z,2.00
2018-07-24T21:00:08.916Z,1.30
2018-07-24T21:02:36.830Z,1.40
2018-07-24T21:05:04.804Z,1.50
2018-07-24T21:07:32.727Z,1.60
2018-07-24T21:10:00.403Z,1.43
2018-07-24T21:12:28.365Z,1.50
2018-07-24T21:14:55.961Z,1.37
2018-07-24T21:17:23.652Z,1.40
2018-07-24T21:19:52.124Z,1.33
2018-07-24T21:22:19.732Z,1.40
2018-07-24T21:24:47.387Z,1.53
2018-07-24T21:27:16.320Z,1.37
2018-07-24T21:29:43.920Z,1.60
2018-07-24T21:32:11.617Z,1.33
2018-07-24T21:34:39.418Z,1.67
2018-07-24T21:37:07.255Z,1.83
2018-07-24T21:39:34.922Z,1.90
2018-07-24T21:42:02.812Z,1.50
2018-07-24T21:44:30.481Z,1.40
2018-07-24T21:46:58.662Z,1.60
2018-07-24T21:49:26.253Z,1.23
2018-07-24T21:51:53.900Z,1.53
2018-07-24T21:54:21.635Z,1.67
2018-07-24T21:56:49.760Z,1.63
2018-07-24T21:59:17.383Z,1.67
2018-07-24T22:01:45.011Z,1.90
2018-07-24T22:04:13.621Z,1.90
2018-07-24T22:06:41.252Z,1.57
2018-07-24T22:09:09.100Z,1.70
2018-07-24T22:11:36.781Z,1.87
2018-07-24T22:14:04.417Z,1.50
2018-07-24T22:16:32.055Z,1.77
2018-07-24T22:18:59.644Z,1.70
2018-07-24T22:21:27.279Z,2.03
2018-07-24T22:23:55.232Z,1.70
2018-07-24T22:26:22.848Z,1.60
2018-07-24T22:28:50.407Z,1.60
2018-07-24T22:31:18.316Z,1.53
2018-07-24T22:33:45.889Z,1.87
2018-07-24T22:36:13.575Z,1.97
2018-07-24T22:38:44.461Z,1.80
2018-07-24T22:41:12.814Z,1.90
2018-07-24T22:43:40.436Z,1.57
2018-07-24T22:46:08.072Z,1.60
2018-07-24T22:48:36.200Z,2.00
2018-07-24T22:51:03.823Z,1.60
2018-07-24T22:53:31.423Z,2.00
2018-07-24T22:55:59.195Z,1.63
2018-07-24T22:58:26.836Z,1.70
2018-07-24T23:00:54.432Z,2.10
2018-07-24T23:03:21.995Z,1.90
2018-07-24T23:05:49.592Z,1.77
2018-07-24T23:08:17.206Z,1.90
2018-07-24T23:10:45.162Z,1.70
2018-07-24T23:13:12.924Z,2.17
2018-07-24T23:15:40.526Z,2.00
2018-07-24T23:18:08.316Z,2.00
2018-07-24T23:20:35.938Z,1.93
2018-07-24T23:23:03.535Z,2.03
2018-07-24T23:25:31.444Z,2.30
2018-07-24T23:27:59.172Z,2.17
2018-07-24T23:30:26.860Z,2.03
2018-07-24T23:32:55.135Z,2.50
2018-07-24T23:35:22.937Z,2.10
2018-07-24T23:37:50.547Z,1.90
2018-07-24T23:40:18.237Z,1.90
2018-07-24T23:42:45.908Z,2.00
2018-07-24T23:45:13.496Z,2.17
2018-07-24T23:47:41.436Z,2.30
2018-07-24T23:50:09.015Z,1.80
2018-07-24T23:52:36.752Z,2.30
2018-07-24T23:55:04.527Z,2.10
2018-07-24T23:57:32.104Z,2.63
2018-07-24T23:59:59.728Z,2.43
